Time;durP1;ratioP1;P1;durP2;ratioP2;P2;SDS_P1;SDS_P2;PMS_P1;PMS_P2;Temp;Humidity;BMP_temperature;BMP_pressure;BME280_temperature;BME280_humidity;BME280_pressure;Samples;Min_cycle;Max_cycle;Signal;HPM_P1;HPM_P2
2024/04/03 00:03:27;;;;;;;3.30;2.20;;;9.80;99.90;;;;;;5093335;28;20173;-75
2024/04/03 00:14:13;;;;;;;5.43;2.30;;;9.90;99.90;;;;;;5093299;28;20181;-75
2024/04/03 00:28:19;;;;;;;4.90;2.60;;;9.90;99.90;;;;;;5093492;28;20213;-76
2024/04/03 00:31:18;;;;;;;5.67;2.40;;;9.90;99.90;;;;;;5078587;28;20204;-75
2024/04/03 00:46:49;;;;;;;7.40;2.30;;;9.80;99.90;;;;;;5077964;28;20221;-74
2024/04/03 00:50:27;;;;;;;6.73;2.50;;;9.80;99.90;;;;;;5080039;28;20197;-75
2024/04/03 00:56:44;;;;;;;6.40;2.43;;;9.80;99.90;;;;;;5078449;28;20229;-74
2024/04/03 01:00:17;;;;;;;3.90;2.20;;;9.80;99.90;;;;;;5082188;28;20219;-75
2024/04/03 01:06:59;;;;;;;5.47;2.40;;;9.80;99.90;;;;;;5077600;28;20247;-75
2024/04/03 01:21:18;;;;;;;3.40;2.60;;;9.80;99.90;;;;;;5112291;28;20204;-75
2024/04/03 01:32:19;;;;;;;4.60;2.63;;;9.80;99.90;;;;;;5098033;28;20193;-75
2024/04/03 01:40:18;;;;;;;5.07;2.30;;;9.80;99.90;;;;;;5112155;28;20185;-75
2024/04/03 01:46:59;;;;;;;5.27;2.30;;;9.70;99.90;;;;;;5097760;28;20231;-75
2024/04/03 01:53:23;;;;;;;9.53;2.37;;;9.70;99.90;;;;;;5097731;28;20192;-76
2024/04/03 01:56:10;;;;;;;7.63;3.00;;;9.70;99.90;;;;;;5096496;28;20188;-75
2024/04/03 01:58:56;;;;;;;5.03;2.50;;;9.70;99.90;;;;;;5095592;28;20188;-75
2024/04/03 02:01:43;;;;;;;5.47;2.33;;;9.70;99.90;;;;;;5095760;28;20234;-75
2024/04/03 02:04:29;;;;;;;4.53;2.53;;;9.70;99.90;;;;;;5095922;28;20234;-74
2024/04/03 02:07:16;;;;;;;6.30;2.47;;;9.70;99.90;;;;;;5095756;28;20217;-75
2024/04/03 02:10:03;;;;;;;4.37;2.57;;;9.70;99.90;;;;;;5096564;28;20201;-74
2024/04/03 02:12:49;;;;;;;3.77;2.60;;;9.70;99.90;;;;;;5095467;28;20188;-74
2024/04/03 02:15:36;;;;;;;8.10;2.83;;;9.70;99.90;;;;;;5096581;28;20188;-74
2024/04/03 02:18:23;;;;;;;6.13;2.40;;;9.70;99.90;;;;;;5095589;28;20197;-74
2024/04/03 02:21:10;;;;;;;7.40;2.50;;;9.60;99.90;;;;;;5095081;28;20196;-75
2024/04/03 02:23:56;;;;;;;6.10;2.50;;;9.60;99.90;;;;;;5097373;28;20193;-75
2024/04/03 02:26:43;;;;;;;6.80;2.30;;;9.60;99.90;;;;;;5095528;28;20220;-74
2024/04/03 02:29:30;;;;;;;6.77;2.60;;;9.70;99.90;;;;;;5095709;28;20193;-74
2024/04/03 02:32:16;;;;;;;4.63;2.43;;;9.60;99.90;;;;;;5095488;28;20200;-74
2024/04/03 02:35:03;;;;;;;4.67;2.50;;;9.50;99.90;;;;;;5095844;28;20253;-74
2024/04/03 02:37:50;;;;;;;5.47;2.73;;;9.50;99.90;;;;;;5094675;28;20545;-74
2024/04/03 02:40:36;;;;;;;6.70;2.90;;;9.40;99.90;;;;;;5096453;28;20189;-74
2024/04/03 02:43:23;;;;;;;5.90;2.50;;;9.40;99.90;;;;;;5095777;28;20215;-74
2024/04/03 02:46:09;;;;;;;4.30;2.60;;;9.40;99.90;;;;;;5095545;28;20216;-74
2024/04/03 02:48:56;;;;;;;4.33;2.20;;;9.40;99.90;;;;;;5096525;28;20208;-74
2024/04/03 02:51:42;;;;;;;3.80;1.97;;;9.40;99.90;;;;;;5095550;28;20205;-75
2024/04/03 02:54:30;;;;;;;6.00;2.20;;;9.50;99.90;;;;;;5096560;28;20241;-75
2024/04/03 02:57:17;;;;;;;3.57;2.00;;;9.50;99.90;;;;;;5095928;28;20199;-74
2024/04/03 03:00:04;;;;;;;6.33;2.40;;;9.50;99.90;;;;;;5095196;28;20600;-74
2024/04/03 03:02:50;;;;;;;4.70;2.20;;;9.50;99.90;;;;;;5096383;28;20185;-74
2024/04/03 03:05:37;;;;;;;3.47;2.00;;;9.50;99.90;;;;;;5095748;28;20317;-75
2024/04/03 03:08:30;;;;;;;4.43;2.33;;;9.50;99.90;;;;;;5096091;28;20716;-75
2024/04/03 03:11:16;;;;;;;5.30;2.43;;;9.50;99.90;;;;;;5095703;28;20230;-75
2024/04/03 03:14:04;;;;;;;3.23;2.10;;;9.50;99.90;;;;;;5096356;28;20201;-75
2024/04/03 03:16:50;;;;;;;4.03;2.20;;;9.60;99.90;;;;;;5095702;28;20241;-75
2024/04/03 03:19:37;;;;;;;4.17;2.20;;;9.60;99.90;;;;;;5096265;28;20684;-75
2024/04/03 03:22:23;;;;;;;4.30;2.40;;;9.60;99.90;;;;;;5095794;28;20192;-75
2024/04/03 03:25:10;;;;;;;3.80;2.03;;;9.60;99.90;;;;;;5095034;28;20199;-75
2024/04/03 03:27:56;;;;;;;3.93;2.03;;;9.60;99.90;;;;;;5081344;28;20679;-75
2024/04/03 03:30:50;;;;;;;3.63;2.10;;;9.60;99.90;;;;;;5100440;28;20193;-75
2024/04/03 03:33:37;;;;;;;4.50;2.50;;;9.60;99.90;;;;;;5098202;28;20553;-75
2024/04/03 03:36:24;;;;;;;5.77;2.30;;;9.60;99.90;;;;;;5099861;28;20195;-75
2024/04/03 03:39:10;;;;;;;4.00;2.70;;;9.60;99.90;;;;;;5099987;28;20197;-74
2024/04/03 03:41:57;;;;;;;4.20;2.30;;;9.60;99.90;;;;;;5098798;28;20192;-75
2024/04/03 03:44:43;;;;;;;3.57;2.43;;;9.60;99.90;;;;;;5098584;28;20652;-75
2024/04/03 03:47:30;;;;;;;6.50;2.77;;;9.70;99.90;;;;;;5098261;28;20241;-74
2024/04/03 03:53:21;;;;;;;4.17;2.20;;;9.70;99.90;;;;;;5102512;28;20185;-75
2024/04/03 03:56:08;;;;;;;7.80;2.53;;;9.70;99.90;;;;;;5097737;28;20193;-75
2024/04/03 03:58:55;;;;;;;3.73;2.40;;;9.60;99.90;;;;;;5098044;28;20189;-75
2024/04/03 04:01:42;;;;;;;4.43;2.40;;;9.70;99.90;;;;;;5098302;28;20192;-74
2024/04/03 04:04:28;;;;;;;5.00;2.60;;;9.60;99.90;;;;;;5098414;28;20212;-74
2024/04/03 04:07:18;;;;;;;4.83;2.70;;;9.70;99.90;;;;;;5098939;28;20217;-75
2024/04/03 04:10:05;;;;;;;3.83;2.30;;;9.70;99.90;;;;;;5098442;28;20191;-75
2024/04/03 04:12:53;;;;;;;5.97;3.10;;;9.70;99.90;;;;;;5098443;28;20195;-75
2024/04/03 04:15:40;;;;;;;3.50;2.70;;;9.70;99.90;;;;;;5084611;28;20196;-75
2024/04/03 04:18:27;;;;;;;4.93;2.60;;;9.70;99.90;;;;;;5084926;28;20203;-74
2024/04/03 04:21:18;;;;;;;3.53;2.50;;;9.70;99.90;;;;;;5097651;28;20189;-74
2024/04/03 04:24:06;;;;;;;4.37;2.20;;;9.70;99.90;;;;;;5097476;28;20199;-74
2024/04/03 04:26:59;;;;;;;4.10;2.63;;;9.70;99.90;;;;;;5097049;28;20874;-74
2024/04/03 04:29:46;;;;;;;5.27;2.90;;;9.70;99.90;;;;;;5097502;28;20181;-74
2024/04/03 04:32:33;;;;;;;4.80;3.03;;;9.70;99.90;;;;;;5097883;28;20717;-75
2024/04/03 04:35:20;;;;;;;4.60;2.93;;;9.70;99.90;;;;;;5097274;28;20612;-75
2024/04/03 04:38:06;;;;;;;4.13;2.90;;;9.70;99.90;;;;;;5097635;28;20240;-75
2024/04/03 04:40:54;;;;;;;6.50;3.50;;;9.70;99.90;;;;;;5097621;28;20196;-75
2024/04/03 04:43:41;;;;;;;5.73;3.10;;;9.70;99.90;;;;;;5097174;28;20203;-75
2024/04/03 04:46:27;;;;;;;4.50;3.17;;;9.70;99.90;;;;;;5097843;28;20224;-74
2024/04/03 04:49:17;;;;;;;4.57;3.23;;;9.70;99.90;;;;;;5097435;28;20291;-75
2024/04/03 04:52:04;;;;;;;3.97;3.20;;;9.70;99.90;;;;;;5098221;28;20193;-75
2024/04/03 04:54:50;;;;;;;5.87;3.43;;;9.70;99.90;;;;;;5098205;28;20189;-74
2024/04/03 04:57:40;;;;;;;4.77;3.47;;;9.70;99.90;;;;;;5083521;28;20242;-75
2024/04/03 05:00:32;;;;;;;7.50;3.87;;;9.70;99.90;;;;;;5098177;28;20544;-75
2024/04/03 05:03:19;;;;;;;4.97;3.37;;;9.80;99.90;;;;;;5097418;28;20215;-78
2024/04/03 05:06:14;;;;;;;4.57;3.10;;;9.80;99.90;;;;;;5082426;28;20577;-78
2024/04/03 05:09:00;;;;;;;4.77;3.67;;;9.80;99.90;;;;;;5083616;28;20222;-78
2024/04/03 05:11:47;;;;;;;4.87;3.33;;;9.90;99.90;;;;;;5097363;28;20652;-78
2024/04/03 05:14:33;;;;;;;5.37;3.50;;;9.80;99.90;;;;;;5100557;28;20199;-77
2024/04/03 05:17:22;;;;;;;4.90;3.10;;;9.90;99.90;;;;;;5090795;28;20289;-78
2024/04/03 05:20:10;;;;;;;6.87;3.33;;;9.90;99.90;;;;;;5091766;28;20210;-78
2024/04/03 05:22:56;;;;;;;5.47;3.57;;;9.90;99.90;;;;;;5089991;28;20201;-78
2024/04/03 05:26:12;;;;;;;5.57;3.67;;;9.90;99.90;;;;;;5090917;28;20228;-78
2024/04/03 05:29:19;;;;;;;4.40;3.50;;;9.90;99.90;;;;;;5090839;28;20186;-79
2024/04/03 05:32:21;;;;;;;5.87;3.20;;;9.90;99.90;;;;;;5089523;28;20243;-78
2024/04/03 05:35:08;;;;;;;4.53;3.70;;;9.90;99.90;;;;;;5090799;28;20227;-78
2024/04/03 05:37:57;;;;;;;3.53;3.00;;;9.90;99.90;;;;;;5090056;28;20609;-77
2024/04/03 05:41:26;;;;;;;3.53;3.10;;;10.00;99.90;;;;;;5028619;28;20568;-77
2024/04/03 05:44:19;;;;;;;4.57;3.20;;;10.10;99.90;;;;;;5001792;28;20195;-77
2024/04/03 05:47:08;;;;;;;3.63;3.03;;;10.10;99.90;;;;;;5016451;28;20213;-76
2024/04/03 05:49:55;;;;;;;3.47;3.10;;;10.00;99.90;;;;;;5000226;28;20215;-77
2024/04/03 05:52:42;;;;;;;3.33;2.90;;;10.00;99.90;;;;;;5015284;28;20202;-77
2024/04/03 05:55:29;;;;;;;4.10;2.77;;;9.90;99.90;;;;;;5015755;28;20194;-77
2024/04/03 05:58:18;;;;;;;4.40;2.73;;;10.00;99.90;;;;;;5015689;28;20196;-76
2024/04/03 06:01:07;;;;;;;6.07;3.10;;;10.00;99.90;;;;;;5002196;28;20290;-76
2024/04/03 06:03:53;;;;;;;5.27;3.20;;;9.90;99.90;;;;;;5029656;28;20202;-76
2024/04/03 06:06:40;;;;;;;6.87;3.13;;;9.80;99.90;;;;;;5029343;28;20663;-76
2024/04/03 06:09:26;;;;;;;4.70;3.20;;;9.70;99.90;;;;;;5002548;28;20196;-76
2024/04/03 06:12:13;;;;;;;4.50;3.30;;;9.60;99.90;;;;;;5013637;28;20690;-76
2024/04/03 06:15:00;;;;;;;5.47;3.40;;;9.40;99.90;;;;;;5016034;28;20195;-76
2024/04/03 06:17:46;;;;;;;8.40;3.50;;;9.20;99.90;;;;;;5033570;28;20221;-76
2024/04/03 06:20:33;;;;;;;5.10;3.57;;;9.10;99.90;;;;;;5076439;28;20212;-76
2024/04/03 06:23:20;;;;;;;4.53;3.53;;;9.00;99.90;;;;;;5090073;28;20242;-77
2024/04/03 06:26:08;;;;;;;6.67;3.10;;;9.00;99.90;;;;;;5076181;28;20243;-77
2024/04/03 06:28:55;;;;;;;5.00;3.30;;;9.10;99.90;;;;;;5062498;28;20276;-76
2024/04/03 06:31:42;;;;;;;4.47;3.30;;;9.10;99.90;;;;;;5076131;28;20219;-76
2024/04/03 06:34:29;;;;;;;6.10;3.07;;;9.20;99.90;;;;;;5075502;28;20223;-76
2024/04/03 06:37:16;;;;;;;4.30;2.90;;;9.30;99.90;;;;;;5075642;28;20185;-76
2024/04/03 06:40:03;;;;;;;4.60;2.97;;;9.40;99.90;;;;;;5076416;28;20197;-76
2024/04/03 06:42:50;;;;;;;5.83;2.80;;;9.50;99.90;;;;;;5048701;28;20239;-76
2024/04/03 06:45:37;;;;;;;5.77;3.03;;;9.50;99.90;;;;;;5075458;28;20231;-76
2024/04/03 06:48:23;;;;;;;4.73;2.80;;;9.60;99.90;;;;;;5075811;28;20687;-76
2024/04/03 06:51:09;;;;;;;4.83;2.77;;;9.50;99.90;;;;;;5076882;28;20272;-76
2024/04/03 06:53:56;;;;;;;3.87;2.70;;;9.40;99.90;;;;;;5075695;28;20189;-77
2024/04/03 06:56:46;;;;;;;4.83;2.50;;;9.40;99.90;;;;;;5076243;28;20269;-77
2024/04/03 06:59:33;;;;;;;3.70;2.60;;;9.50;99.90;;;;;;5075783;28;20208;-77
2024/04/03 07:02:19;;;;;;;4.30;2.90;;;9.60;99.90;;;;;;5076080;28;20212;-77
2024/04/03 07:05:06;;;;;;;5.70;3.00;;;9.70;99.90;;;;;;5078216;28;20209;-77
2024/04/03 07:07:53;;;;;;;6.30;3.00;;;9.70;99.90;;;;;;5065319;28;20239;-77
2024/04/03 07:10:40;;;;;;;4.00;2.67;;;9.80;99.90;;;;;;5079953;28;20234;-77
2024/04/03 07:13:27;;;;;;;4.77;2.53;;;9.70;99.90;;;;;;5078614;28;20679;-77
2024/04/03 07:16:13;;;;;;;4.90;2.47;;;9.70;99.90;;;;;;5086141;28;20593;-76
2024/04/03 07:18:59;;;;;;;5.20;3.27;;;9.70;99.90;;;;;;5099251;28;20253;-76
2024/04/03 07:21:46;;;;;;;5.40;3.23;;;9.70;99.90;;;;;;5102698;28;20195;-76
2024/04/03 07:24:32;;;;;;;4.53;3.30;;;9.50;99.90;;;;;;5098601;28;20194;-76
2024/04/03 07:27:26;;;;;;;4.43;3.60;;;9.40;99.90;;;;;;5083867;28;20216;-76
2024/04/03 07:30:13;;;;;;;6.07;3.80;;;9.40;99.90;;;;;;5100759;28;20201;-76
2024/04/03 07:32:59;;;;;;;5.43;3.70;;;9.30;99.90;;;;;;5089068;28;20188;-75
2024/04/03 07:35:46;;;;;;;5.77;4.10;;;9.20;99.90;;;;;;5088285;28;20207;-75
2024/04/03 07:38:32;;;;;;;6.60;4.03;;;9.20;99.90;;;;;;5090425;28;20189;-75
2024/04/03 07:41:24;;;;;;;5.97;3.80;;;9.20;99.90;;;;;;5100876;28;20270;-75
2024/04/03 07:44:16;;;;;;;6.60;3.90;;;9.20;99.90;;;;;;5088242;28;20189;-76
2024/04/03 07:47:03;;;;;;;6.33;4.30;;;9.20;99.90;;;;;;5086177;28;20409;-75
2024/04/03 07:49:52;;;;;;;6.27;4.10;;;9.30;99.90;;;;;;5084678;28;20208;-76
2024/04/03 07:52:39;;;;;;;6.37;4.17;;;9.30;99.90;;;;;;5084549;28;20648;-75
2024/04/03 07:55:26;;;;;;;8.23;4.20;;;9.40;99.90;;;;;;5084650;28;20196;-76
2024/04/03 07:58:12;;;;;;;5.27;3.67;;;9.40;99.90;;;;;;5098684;28;20189;-76
2024/04/03 08:01:00;;;;;;;7.87;4.70;;;9.50;99.90;;;;;;5084944;28;20196;-75
2024/04/03 08:03:46;;;;;;;5.43;3.67;;;9.60;99.90;;;;;;5098407;28;20189;-75
2024/04/03 08:06:33;;;;;;;6.93;3.70;;;9.90;99.90;;;;;;5084180;28;20641;-75
2024/04/03 08:09:19;;;;;;;8.40;4.00;;;10.10;99.90;;;;;;5099184;28;20240;-76
2024/04/03 08:12:06;;;;;;;5.87;3.90;;;10.30;99.90;;;;;;5084037;28;20185;-76
2024/04/03 08:14:52;;;;;;;4.37;3.00;;;10.20;99.90;;;;;;5098786;28;20185;-77
2024/04/03 08:17:39;;;;;;;4.87;3.13;;;10.40;99.90;;;;;;5084406;28;20236;-76
2024/04/03 08:20:25;;;;;;;5.70;3.20;;;10.60;99.90;;;;;;5084905;28;20266;-77
2024/04/03 08:23:12;;;;;;;5.60;2.90;;;10.70;99.90;;;;;;5097614;28;20670;-77
2024/04/03 08:26:07;;;;;;;4.13;2.80;;;10.80;99.90;;;;;;5097527;28;20220;-77
2024/04/03 08:28:53;;;;;;;7.13;2.73;;;10.90;99.90;;;;;;5098938;28;20203;-77
2024/04/03 08:31:39;;;;;;;5.20;2.90;;;11.10;99.90;;;;;;5097607;28;20192;-77
2024/04/03 08:34:26;;;;;;;5.60;2.70;;;11.10;99.90;;;;;;5097349;28;20744;-77
2024/04/03 08:37:12;;;;;;;3.53;2.80;;;11.20;99.90;;;;;;5097682;28;20207;-77
2024/04/03 08:40:00;;;;;;;4.97;2.63;;;11.30;99.90;;;;;;5097549;28;20195;-77
2024/04/03 08:42:50;;;;;;;3.93;2.53;;;11.50;99.90;;;;;;5083401;28;20533;-77
2024/04/03 08:45:42;;;;;;;3.73;2.33;;;11.50;99.90;;;;;;5097669;28;20199;-76
2024/04/03 08:48:29;;;;;;;4.30;2.60;;;11.50;99.90;;;;;;5096927;28;20177;-77
2024/04/03 08:51:18;;;;;;;4.63;2.60;;;11.50;99.90;;;;;;5097462;28;20556;-75
2024/04/03 08:54:09;;;;;;;4.67;2.67;;;11.40;99.90;;;;;;5099053;28;20672;-76
2024/04/03 08:57:01;;;;;;;4.37;2.80;;;11.20;99.90;;;;;;5097099;28;20193;-76
2024/04/03 08:59:48;;;;;;;4.53;2.83;;;11.10;99.90;;;;;;5084474;28;20260;-76
2024/04/03 09:02:35;;;;;;;3.87;2.80;;;11.10;99.90;;;;;;5084185;28;20192;-76
2024/04/03 09:05:21;;;;;;;4.93;3.10;;;11.10;99.90;;;;;;5096459;28;20289;-76
2024/04/03 09:08:09;;;;;;;4.50;3.10;;;11.10;99.90;;;;;;5098144;28;20194;-76
2024/04/03 09:11:00;;;;;;;5.00;3.07;;;11.00;99.90;;;;;;5097550;28;20197;-76
2024/04/03 09:13:53;;;;;;;4.97;2.93;;;11.00;99.90;;;;;;5096613;28;20189;-76
2024/04/03 09:16:40;;;;;;;4.30;3.13;;;10.90;99.90;;;;;;5085805;28;20279;-76
2024/04/03 09:19:28;;;;;;;6.90;3.60;;;10.80;99.90;;;;;;5063393;28;20703;-76
2024/04/03 09:22:16;;;;;;;2.97;1.77;;;10.50;99.90;;;;;;5076843;28;20278;-77
2024/04/03 09:25:03;;;;;;;2.23;1.33;;;9.80;99.90;;;;;;5077253;28;20203;-77
2024/04/03 09:27:50;;;;;;;2.77;1.20;;;9.20;99.90;;;;;;5076406;28;20193;-78
2024/04/03 09:30:45;;;;;;;1.87;1.17;;;8.70;99.90;;;;;;5063473;28;20653;-77
2024/04/03 09:33:34;;;;;;;3.70;1.30;;;8.40;99.90;;;;;;5075192;28;20189;-77
2024/04/03 09:36:22;;;;;;;1.33;1.10;;;8.20;99.90;;;;;;5074605;28;20193;-77
2024/04/03 09:39:09;;;;;;;3.83;1.30;;;8.10;99.90;;;;;;5076985;28;20633;-77
2024/04/03 09:42:09;;;;;;;1.40;1.20;;;7.90;99.90;;;;;;5076480;28;20196;-77
2024/04/03 09:45:00;;;;;;;3.47;1.80;;;7.90;99.90;;;;;;5063231;28;20236;-77
2024/04/03 09:47:59;;;;;;;2.70;1.57;;;8.00;99.90;;;;;;5076336;28;20220;-77
2024/04/03 09:50:46;;;;;;;3.13;1.53;;;8.10;99.90;;;;;;5076366;28;20572;-77
2024/04/03 09:53:33;;;;;;;2.43;1.80;;;8.20;99.90;;;;;;5075874;28;20652;-77
2024/04/03 09:56:20;;;;;;;4.00;2.20;;;8.30;99.90;;;;;;5076748;28;20560;-77
2024/04/03 09:59:07;;;;;;;4.07;2.20;;;8.50;99.90;;;;;;5076671;28;20661;-77
2024/04/03 10:01:54;;;;;;;4.10;2.40;;;8.50;99.90;;;;;;5075439;28;20189;-77
2024/04/03 10:04:41;;;;;;;5.83;2.73;;;8.60;99.90;;;;;;5062130;28;20216;-77
2024/04/03 10:07:30;;;;;;;4.03;2.50;;;8.70;99.90;;;;;;5062148;28;20219;-77
2024/04/03 10:10:18;;;;;;;3.33;2.07;;;8.70;99.90;;;;;;5061890;28;20193;-77
2024/04/03 10:13:05;;;;;;;3.20;2.27;;;8.70;99.90;;;;;;5075219;28;20215;-77
2024/04/03 10:16:01;;;;;;;4.70;2.30;;;8.70;99.90;;;;;;5065926;28;20228;-77
2024/04/03 10:18:48;;;;;;;3.83;2.00;;;8.70;99.90;;;;;;5082632;28;20196;-77
2024/04/03 10:21:36;;;;;;;4.07;2.13;;;8.70;99.90;;;;;;5095398;28;20193;-77
2024/04/03 10:24:28;;;;;;;3.63;2.10;;;8.70;99.90;;;;;;5096758;28;20200;-77
2024/04/03 10:27:15;;;;;;;4.30;2.40;;;8.60;99.90;;;;;;5096763;28;20224;-77
2024/04/03 10:30:02;;;;;;;5.37;2.30;;;8.40;99.90;;;;;;5096269;28;20595;-77
2024/04/03 10:32:55;;;;;;;4.10;1.90;;;8.30;99.90;;;;;;5083438;28;20651;-77
2024/04/03 10:35:42;;;;;;;3.57;2.20;;;8.20;99.90;;;;;;5082156;28;20580;-77
2024/04/03 10:38:32;;;;;;;5.13;2.60;;;8.20;99.90;;;;;;5098050;28;20188;-78
2024/04/03 10:41:18;;;;;;;5.67;2.40;;;8.10;99.90;;;;;;5101070;28;20193;-77
2024/04/03 10:44:06;;;;;;;4.77;2.30;;;8.20;99.90;;;;;;5100687;28;20677;-78
2024/04/03 10:47:03;;;;;;;3.87;2.50;;;8.10;99.90;;;;;;5099050;28;20688;-77
2024/04/03 10:49:50;;;;;;;6.00;2.63;;;8.10;99.90;;;;;;5099221;28;20222;-77
2024/04/03 10:52:36;;;;;;;5.67;2.73;;;8.20;99.90;;;;;;5099549;28;20196;-77
2024/04/03 10:55:28;;;;;;;4.70;2.40;;;8.20;99.90;;;;;;5100048;28;20197;-77
2024/04/03 10:58:15;;;;;;;3.60;2.57;;;8.30;99.90;;;;;;5099962;28;20660;-77
2024/04/03 11:01:04;;;;;;;4.33;2.60;;;8.30;99.90;;;;;;5099849;28;20203;-77
2024/04/03 11:03:52;;;;;;;7.37;2.70;;;8.20;99.90;;;;;;5086145;28;20188;-77
2024/04/03 11:06:42;;;;;;;7.57;2.60;;;8.30;99.90;;;;;;5086207;28;20213;-78
2024/04/03 11:09:31;;;;;;;5.13;2.90;;;8.40;99.90;;;;;;5099652;28;20203;-77
2024/04/03 11:12:18;;;;;;;4.67;2.43;;;8.50;99.90;;;;;;5099580;28;20199;-77
2024/04/03 11:15:09;;;;;;;5.20;2.70;;;8.60;99.90;;;;;;5099006;28;20188;-77
2024/04/03 11:17:57;;;;;;;7.97;2.93;;;8.70;99.90;;;;;;5099374;28;20199;-77
2024/04/03 11:20:43;;;;;;;7.03;3.20;;;8.80;99.90;;;;;;5085348;28;20226;-76
2024/04/03 11:23:30;;;;;;;6.10;2.90;;;8.90;99.90;;;;;;5099371;28;20189;-76
2024/04/03 11:26:16;;;;;;;7.07;3.10;;;8.80;99.90;;;;;;5099342;28;20614;-76
2024/04/03 11:29:27;;;;;;;6.73;2.80;;;8.90;99.90;;;;;;5098532;28;20195;-77
2024/04/03 11:32:16;;;;;;;6.93;3.10;;;8.80;99.90;;;;;;5099217;28;20200;-77
2024/04/03 11:35:04;;;;;;;10.20;4.00;;;8.80;99.90;;;;;;5084766;28;20221;-77
2024/04/03 11:37:51;;;;;;;6.97;3.23;;;8.80;99.90;;;;;;5084599;28;20677;-77
2024/04/03 11:40:37;;;;;;;7.07;3.30;;;8.80;99.90;;;;;;5099663;28;20206;-77
2024/04/03 11:43:23;;;;;;;8.80;3.27;;;8.70;99.90;;;;;;5099708;28;20193;-77
2024/04/03 11:46:10;;;;;;;11.93;3.60;;;8.60;99.90;;;;;;5098940;28;20207;-77
2024/04/03 11:48:59;;;;;;;8.20;3.90;;;8.60;99.90;;;;;;5084528;28;20713;-77
2024/04/03 11:51:48;;;;;;;9.10;4.40;;;8.60;99.90;;;;;;5085572;28;20568;-76
2024/04/03 11:54:34;;;;;;;11.10;4.50;;;8.60;99.90;;;;;;5085393;28;20199;-76
2024/04/03 11:57:22;;;;;;;9.40;4.43;;;8.40;99.90;;;;;;5084672;28;20705;-77
2024/04/03 12:00:11;;;;;;;11.23;5.27;;;8.30;99.90;;;;;;5084722;28;20200;-77
2024/04/03 12:02:58;;;;;;;10.90;5.00;;;8.30;99.90;;;;;;5099115;28;20185;-77
2024/04/03 12:05:44;;;;;;;10.67;5.73;;;8.20;99.90;;;;;;5098197;28;20680;-77
2024/04/03 12:08:31;;;;;;;11.87;5.23;;;8.20;99.90;;;;;;5099233;28;20191;-77
2024/04/03 12:11:17;;;;;;;12.80;5.97;;;8.30;99.90;;;;;;5099748;28;20200;-76
2024/04/03 12:14:07;;;;;;;11.17;5.47;;;8.40;99.90;;;;;;5098008;28;20188;-77
2024/04/03 12:16:55;;;;;;;11.63;5.60;;;8.50;99.90;;;;;;5098254;28;20522;-77
2024/04/03 12:19:44;;;;;;;12.17;6.07;;;8.70;99.90;;;;;;5083836;28;20213;-77
2024/04/03 12:22:31;;;;;;;10.70;5.30;;;9.00;99.90;;;;;;5084565;28;20185;-77
2024/04/03 12:25:21;;;;;;;10.60;4.87;;;9.20;99.90;;;;;;5084938;28;20204;-77
2024/04/03 12:28:07;;;;;;;9.47;4.70;;;9.20;99.90;;;;;;5098920;28;20196;-77
2024/04/03 12:31:00;;;;;;;9.83;5.13;;;9.30;99.90;;;;;;5097446;28;20538;-77
2024/04/03 12:33:51;;;;;;;9.43;5.00;;;9.20;99.90;;;;;;5098642;28;20208;-77
2024/04/03 12:36:38;;;;;;;9.00;4.63;;;9.30;99.90;;;;;;5097616;28;20215;-77
2024/04/03 12:39:31;;;;;;;7.80;4.63;;;9.30;99.90;;;;;;5097245;28;20188;-77
2024/04/03 12:42:22;;;;;;;9.53;4.47;;;9.50;99.90;;;;;;5097282;28;20199;-77
2024/04/03 12:45:08;;;;;;;9.43;4.40;;;9.30;99.90;;;;;;5083785;28;20203;-77
2024/04/03 12:47:55;;;;;;;9.53;4.37;;;9.30;99.90;;;;;;5083549;28;20235;-77
2024/04/03 12:50:42;;;;;;;7.73;4.10;;;9.10;99.90;;;;;;5098107;28;20265;-77
2024/04/03 12:53:28;;;;;;;6.33;3.53;;;9.00;99.90;;;;;;5083681;28;20192;-76
2024/04/03 12:56:15;;;;;;;4.20;2.80;;;9.00;99.90;;;;;;5096892;28;20535;-77
2024/04/03 12:59:01;;;;;;;5.10;3.00;;;8.90;99.90;;;;;;5097810;28;20284;-77
2024/04/03 13:01:48;;;;;;;5.63;2.93;;;8.80;99.90;;;;;;5083555;28;20557;-77
2024/04/03 13:04:35;;;;;;;5.50;3.10;;;8.60;99.90;;;;;;5096515;28;20268;-78
2024/04/03 13:07:23;;;;;;;4.03;2.70;;;8.60;99.90;;;;;;5097451;28;20580;-77
2024/04/03 13:10:09;;;;;;;6.00;2.53;;;8.60;99.90;;;;;;5096351;28;20567;-78
2024/04/03 13:12:56;;;;;;;4.40;2.63;;;8.50;99.90;;;;;;5097172;28;20552;-77
2024/04/03 13:15:43;;;;;;;3.77;2.50;;;8.40;99.90;;;;;;5096508;28;20191;-77
2024/04/03 13:18:41;;;;;;;3.30;2.10;;;8.20;99.90;;;;;;5083583;28;20238;-78
2024/04/03 13:21:28;;;;;;;2.33;1.63;;;8.10;99.90;;;;;;5096522;28;20199;-78
2024/04/03 13:24:14;;;;;;;3.63;1.80;;;8.10;99.90;;;;;;5097737;28;20196;-77
2024/04/03 13:27:01;;;;;;;2.10;1.60;;;8.10;99.90;;;;;;5096863;28;20220;-77
2024/04/03 13:29:48;;;;;;;2.93;1.70;;;8.10;99.90;;;;;;5096955;28;20241;-77
2024/04/03 13:32:34;;;;;;;2.60;1.43;;;8.10;99.90;;;;;;5097608;28;20578;-79
2024/04/03 13:35:39;;;;;;;3.20;1.90;;;8.20;99.90;;;;;;5082083;28;20208;-78
2024/04/03 13:38:26;;;;;;;2.53;1.70;;;8.20;99.90;;;;;;5084643;28;20659;-77
2024/04/03 13:41:13;;;;;;;1.70;1.43;;;8.10;99.90;;;;;;5096402;28;20199;-77
2024/04/03 13:44:02;;;;;;;1.60;1.43;;;8.10;99.90;;;;;;5096679;28;20524;-77
2024/04/03 13:46:49;;;;;;;2.73;1.73;;;8.10;99.90;;;;;;5096449;28;20227;-78
2024/04/03 13:49:36;;;;;;;2.47;1.50;;;7.90;99.90;;;;;;5082646;28;20291;-78
2024/04/03 13:52:22;;;;;;;2.13;1.40;;;7.90;99.90;;;;;;5082323;28;20290;-77
2024/04/03 13:55:09;;;;;;;2.23;1.43;;;7.80;99.90;;;;;;5097175;28;20655;-77
2024/04/03 13:57:56;;;;;;;1.50;1.40;;;7.70;99.90;;;;;;5096315;28;20200;-77
2024/04/03 14:00:42;;;;;;;2.43;1.53;;;7.60;99.90;;;;;;5083255;28;20185;-76
2024/04/03 14:03:32;;;;;;;1.73;1.53;;;7.60;99.90;;;;;;5096180;28;20211;-78
2024/04/03 14:06:19;;;;;;;1.87;1.60;;;7.60;99.90;;;;;;5083820;28;20209;-75
2024/04/03 14:09:18;;;;;;;1.77;1.50;;;7.50;99.90;;;;;;5095857;28;20652;-75
2024/04/03 14:12:06;;;;;;;1.70;1.50;;;7.50;99.90;;;;;;5096378;28;20204;-76
2024/04/03 14:14:58;;;;;;;2.27;1.80;;;7.40;99.90;;;;;;5097246;28;20204;-74
2024/04/03 14:17:59;;;;;;;2.33;1.67;;;7.50;99.90;;;;;;5064240;28;20199;-74
2024/04/03 14:20:49;;;;;;;4.10;1.90;;;7.50;99.90;;;;;;5062034;28;20359;-75
2024/04/03 14:23:36;;;;;;;3.07;1.60;;;7.50;99.90;;;;;;5076135;28;20242;-75
2024/04/03 14:26:22;;;;;;;3.67;1.60;;;7.50;99.90;;;;;;5075326;28;20224;-74
2024/04/03 14:29:08;;;;;;;2.77;1.70;;;7.50;99.90;;;;;;5076506;28;20351;-74
2024/04/03 14:31:55;;;;;;;2.20;1.40;;;7.50;99.90;;;;;;5074886;28;20193;-76
2024/04/03 14:34:44;;;;;;;3.10;1.80;;;7.50;99.90;;;;;;5076079;28;20212;-76
2024/04/03 14:37:41;;;;;;;3.23;1.67;;;7.50;99.90;;;;;;5074478;28;20192;-77
2024/04/03 14:40:28;;;;;;;2.93;1.70;;;7.60;99.90;;;;;;5074951;28;20193;-77
2024/04/03 14:43:14;;;;;;;4.53;1.50;;;7.50;99.90;;;;;;5076319;28;20198;-77
2024/04/03 14:46:01;;;;;;;2.70;1.60;;;7.60;99.90;;;;;;5075107;28;20249;-77
2024/04/03 14:48:47;;;;;;;3.73;1.70;;;7.60;99.90;;;;;;5061190;28;20200;-77
2024/04/03 14:51:33;;;;;;;2.10;1.73;;;7.60;99.90;;;;;;5075305;28;20605;-77
2024/04/03 14:54:21;;;;;;;2.30;1.70;;;7.70;99.90;;;;;;5061273;28;20196;-75
2024/04/03 14:57:08;;;;;;;2.00;1.60;;;7.80;99.90;;;;;;5076271;28;20706;-76
2024/04/03 14:59:55;;;;;;;3.43;1.63;;;7.70;99.90;;;;;;5062250;28;20192;-76
2024/04/03 15:02:41;;;;;;;1.90;1.70;;;7.60;99.90;;;;;;5075210;28;20192;-75
2024/04/03 15:05:29;;;;;;;2.93;1.90;;;7.50;99.90;;;;;;5074123;28;20557;-77
2024/04/03 15:08:19;;;;;;;2.33;1.70;;;7.50;99.90;;;;;;5061010;28;20192;-77
2024/04/03 15:11:05;;;;;;;2.00;1.60;;;7.60;99.90;;;;;;5074702;28;20193;-78
2024/04/03 15:13:52;;;;;;;3.07;1.70;;;7.70;99.90;;;;;;5075007;28;20226;-77
2024/04/03 15:16:39;;;;;;;2.40;1.50;;;7.80;99.90;;;;;;5060771;28;20594;-76
2024/04/03 15:19:25;;;;;;;2.00;1.67;;;7.70;99.90;;;;;;5076171;28;20224;-76
2024/04/03 15:22:12;;;;;;;2.10;1.63;;;7.80;99.90;;;;;;5074816;28;20245;-77
2024/04/03 15:24:58;;;;;;;1.60;1.47;;;7.80;99.90;;;;;;5076700;28;20220;-75
2024/04/03 15:27:46;;;;;;;2.97;2.00;;;7.80;99.90;;;;;;5063997;28;20213;-83
2024/04/03 15:30:32;;;;;;;2.33;1.80;;;7.50;99.90;;;;;;5066432;28;20196;-73
2024/04/03 15:33:18;;;;;;;3.17;2.00;;;7.70;99.90;;;;;;5077677;28;20826;-74
2024/04/03 15:36:05;;;;;;;1.87;1.50;;;7.70;99.90;;;;;;5078304;28;20193;-73
2024/04/03 15:38:51;;;;;;;2.73;1.60;;;7.50;99.90;;;;;;5078738;28;20186;-73
2024/04/03 15:41:38;;;;;;;2.27;1.63;;;7.40;99.90;;;;;;5078194;28;20188;-73
2024/04/03 15:44:27;;;;;;;2.30;1.50;;;7.50;99.90;;;;;;5065896;28;20199;-74
2024/04/03 15:47:13;;;;;;;6.10;1.50;;;7.40;99.90;;;;;;5077691;28;20253;-74
2024/04/03 15:50:00;;;;;;;2.27;1.60;;;7.30;99.90;;;;;;5077867;28;20212;-74
2024/04/03 15:52:47;;;;;;;4.27;1.40;;;7.30;99.90;;;;;;5064857;28;20193;-73
2024/04/03 15:55:39;;;;;;;2.07;1.40;;;7.30;99.90;;;;;;5078649;28;20201;-74
2024/04/03 15:58:25;;;;;;;3.90;1.80;;;7.30;99.90;;;;;;5050957;28;20194;-73
2024/04/03 16:01:13;;;;;;;1.80;1.43;;;7.30;99.90;;;;;;5077814;28;20186;-73
2024/04/03 16:04:00;;;;;;;2.47;1.60;;;7.20;99.90;;;;;;5063767;28;20214;-73